sensor_id;sensor_type;location;lat;lon;timestamp;P1;durP1;ratioP1;P2;durP2;ratioP2
80115;SDS011;69423;47.608;19.366;2023-05-07T00:00:30;24.80;;;23.70;;
80115;SDS011;69423;47.608;19.366;2023-05-07T00:01:01;26.43;;;25.23;;
80115;SDS011;69423;47.608;19.366;2023-05-07T00:01:32;25.47;;;24.83;;
80115;SDS011;69423;47.608;19.366;2023-05-07T00:02:03;24.57;;;24.30;;
80115;SDS011;69423;47.608;19.366;2023-05-07T00:02:34;24.00;;;24.00;;
80115;SDS011;69423;47.608;19.366;2023-05-07T00:03:05;22.90;;;22.90;;
80115;SDS011;69423;47.608;19.366;2023-05-07T00:03:37;23.67;;;23.50;;
80115;SDS011;69423;47.608;19.366;2023-05-07T00:04:08;26.10;;;25.13;;
80115;SDS011;69423;47.608;19.366;2023-05-07T00:04:39;26.33;;;25.40;;
80115;SDS011;69423;47.608;19.366;2023-05-07T00:05:10;25.33;;;24.90;;
80115;SDS011;69423;47.608;19.366;2023-05-07T00:05:41;23.90;;;23.80;;
80115;SDS011;69423;47.608;19.366;2023-05-07T00:06:12;25.00;;;24.33;;
80115;SDS011;69423;47.608;19.366;2023-05-07T00:06:43;25.27;;;24.23;;
80115;SDS011;69423;47.608;19.366;2023-05-07T00:07:14;26.00;;;24.83;;
80115;SDS011;69423;47.608;19.366;2023-05-07T00:07:46;26.40;;;25.20;;
80115;SDS011;69423;47.608;19.366;2023-05-07T00:08:17;25.77;;;25.13;;
80115;SDS011;69423;47.608;19.366;2023-05-07T00:08:48;25.97;;;25.20;;
80115;SDS011;69423;47.608;19.366;2023-05-07T00:09:18;25.30;;;24.97;;
80115;SDS011;69423;47.608;19.366;2023-05-07T00:09:49;24.50;;;24.27;;
80115;SDS011;69423;47.608;19.366;2023-05-07T00:10:20;24.27;;;23.97;;
80115;SDS011;69423;47.608;19.366;2023-05-07T00:10:51;23.63;;;23.33;;
80115;SDS011;69423;47.608;19.366;2023-05-07T00:11:22;24.73;;;24.30;;
80115;SDS011;69423;47.608;19.366;2023-05-07T00:11:53;23.53;;;23.13;;
80115;SDS011;69423;47.608;19.366;2023-05-07T00:12:24;22.63;;;22.53;;
80115;SDS011;69423;47.608;19.366;2023-05-07T00:12:54;22.80;;;22.67;;
80115;SDS011;69423;47.608;19.366;2023-05-07T00:13:25;22.43;;;22.27;;
80115;SDS011;69423;47.608;19.366;2023-05-07T00:13:56;22.43;;;22.27;;
80115;SDS011;69423;47.608;19.366;2023-05-07T00:14:27;23.77;;;23.10;;
80115;SDS011;69423;47.608;19.366;2023-05-07T00:14:58;22.57;;;22.07;;
80115;SDS011;69423;47.608;19.366;2023-05-07T00:15:29;23.83;;;23.00;;
80115;SDS011;69423;47.608;19.366;2023-05-07T00:16:00;23.73;;;22.77;;
80115;SDS011;69423;47.608;19.366;2023-05-07T00:16:31;24.60;;;23.70;;
80115;SDS011;69423;47.608;19.366;2023-05-07T00:17:01;23.53;;;23.23;;
80115;SDS011;69423;47.608;19.366;2023-05-07T00:17:33;23.73;;;23.27;;
80115;SDS011;69423;47.608;19.366;2023-05-07T00:18:04;23.83;;;23.43;;
80115;SDS011;69423;47.608;19.366;2023-05-07T00:18:35;26.07;;;25.00;;
80115;SDS011;69423;47.608;19.366;2023-05-07T00:19:05;24.23;;;23.77;;
80115;SDS011;69423;47.608;19.366;2023-05-07T00:19:36;22.17;;;22.17;;
80115;SDS011;69423;47.608;19.366;2023-05-07T00:20:07;21.93;;;21.77;;
80115;SDS011;69423;47.608;19.366;2023-05-07T00:20:39;22.37;;;22.07;;
80115;SDS011;69423;47.608;19.366;2023-05-07T00:21:10;22.47;;;22.33;;
80115;SDS011;69423;47.608;19.366;2023-05-07T00:21:41;22.00;;;21.97;;
80115;SDS011;69423;47.608;19.366;2023-05-07T00:22:12;22.50;;;22.13;;
80115;SDS011;69423;47.608;19.366;2023-05-07T00:22:43;21.37;;;21.37;;
80115;SDS011;69423;47.608;19.366;2023-05-07T00:23:14;22.33;;;22.27;;
80115;SDS011;69423;47.608;19.366;2023-05-07T00:23:45;22.30;;;22.23;;
80115;SDS011;69423;47.608;19.366;2023-05-07T00:24:15;22.10;;;21.87;;
80115;SDS011;69423;47.608;19.366;2023-05-07T00:24:46;22.63;;;22.50;;
80115;SDS011;69423;47.608;19.366;2023-05-07T00:25:17;23.83;;;23.73;;
80115;SDS011;69423;47.608;19.366;2023-05-07T00:25:49;23.07;;;22.93;;
80115;SDS011;69423;47.608;19.366;2023-05-07T00:26:21;24.33;;;23.47;;
80115;SDS011;69423;47.608;19.366;2023-05-07T00:26:52;24.30;;;23.17;;
80115;SDS011;69423;47.608;19.366;2023-05-07T00:27:24;24.83;;;23.93;;
80115;SDS011;69423;47.608;19.366;2023-05-07T00:27:55;23.87;;;23.77;;
80115;SDS011;69423;47.608;19.366;2023-05-07T00:28:27;22.90;;;22.57;;
80115;SDS011;69423;47.608;19.366;2023-05-07T00:28:58;23.57;;;22.83;;
80115;SDS011;69423;47.608;19.366;2023-05-07T00:29:29;23.90;;;23.20;;
80115;SDS011;69423;47.608;19.366;2023-05-07T00:30:00;22.73;;;22.47;;
80115;SDS011;69423;47.608;19.366;2023-05-07T00:30:31;24.47;;;23.47;;
80115;SDS011;69423;47.608;19.366;2023-05-07T00:31:02;25.03;;;23.83;;
80115;SDS011;69423;47.608;19.366;2023-05-07T00:31:33;23.63;;;22.80;;
80115;SDS011;69423;47.608;19.366;2023-05-07T00:32:04;22.10;;;22.10;;
80115;SDS011;69423;47.608;19.366;2023-05-07T00:32:35;22.33;;;22.10;;
80115;SDS011;69423;47.608;19.366;2023-05-07T00:33:07;22.70;;;22.33;;
80115;SDS011;69423;47.608;19.366;2023-05-07T00:33:37;22.27;;;22.13;;
80115;SDS011;69423;47.608;19.366;2023-05-07T00:34:09;22.87;;;22.47;;
80115;SDS011;69423;47.608;19.366;2023-05-07T00:34:40;25.00;;;24.13;;
80115;SDS011;69423;47.608;19.366;2023-05-07T00:35:11;35.57;;;34.10;;
80115;SDS011;69423;47.608;19.366;2023-05-07T00:35:42;38.60;;;36.83;;
80115;SDS011;69423;47.608;19.366;2023-05-07T00:36:13;33.47;;;31.97;;
80115;SDS011;69423;47.608;19.366;2023-05-07T00:36:44;28.33;;;27.07;;
80115;SDS011;69423;47.608;19.366;2023-05-07T00:37:14;24.97;;;24.13;;
80115;SDS011;69423;47.608;19.366;2023-05-07T00:37:45;24.50;;;23.83;;
80115;SDS011;69423;47.608;19.366;2023-05-07T00:38:16;25.00;;;23.80;;
80115;SDS011;69423;47.608;19.366;2023-05-07T00:38:47;23.67;;;22.63;;
80115;SDS011;69423;47.608;19.366;2023-05-07T00:39:18;23.70;;;22.67;;
80115;SDS011;69423;47.608;19.366;2023-05-07T00:39:49;22.47;;;21.93;;
80115;SDS011;69423;47.608;19.366;2023-05-07T00:40:20;23.43;;;22.83;;
80115;SDS011;69423;47.608;19.366;2023-05-07T00:40:51;23.90;;;22.73;;
80115;SDS011;69423;47.608;19.366;2023-05-07T00:41:22;24.97;;;23.57;;
80115;SDS011;69423;47.608;19.366;2023-05-07T00:41:53;24.67;;;23.27;;
80115;SDS011;69423;47.608;19.366;2023-05-07T00:42:23;23.50;;;22.97;;
80115;SDS011;69423;47.608;19.366;2023-05-07T00:42:54;23.87;;;23.60;;
80115;SDS011;69423;47.608;19.366;2023-05-07T00:43:28;24.20;;;23.30;;
80115;SDS011;69423;47.608;19.366;2023-05-07T00:43:59;23.57;;;23.03;;
80115;SDS011;69423;47.608;19.366;2023-05-07T00:44:32;23.57;;;23.00;;
80115;SDS011;69423;47.608;19.366;2023-05-07T00:45:03;22.83;;;22.23;;
80115;SDS011;69423;47.608;19.366;2023-05-07T00:45:34;23.17;;;22.37;;
80115;SDS011;69423;47.608;19.366;2023-05-07T00:46:05;22.60;;;22.17;;
80115;SDS011;69423;47.608;19.366;2023-05-07T00:46:36;22.37;;;22.20;;
80115;SDS011;69423;47.608;19.366;2023-05-07T00:47:08;22.23;;;22.23;;
80115;SDS011;69423;47.608;19.366;2023-05-07T00:47:39;22.60;;;22.30;;
80115;SDS011;69423;47.608;19.366;2023-05-07T00:48:11;25.30;;;24.23;;
80115;SDS011;69423;47.608;19.366;2023-05-07T00:48:42;23.70;;;23.23;;
80115;SDS011;69423;47.608;19.366;2023-05-07T00:49:13;23.57;;;23.47;;
80115;SDS011;69423;47.608;19.366;2023-05-07T00:49:44;22.57;;;22.50;;
80115;SDS011;69423;47.608;19.366;2023-05-07T00:50:16;21.37;;;21.27;;
80115;SDS011;69423;47.608;19.366;2023-05-07T00:50:47;22.27;;;21.80;;
80115;SDS011;69423;47.608;19.366;2023-05-07T00:51:18;23.40;;;23.07;;
80115;SDS011;69423;47.608;19.366;2023-05-07T00:51:50;23.40;;;23.17;;
80115;SDS011;69423;47.608;19.366;2023-05-07T00:52:21;23.67;;;23.07;;
80115;SDS011;69423;47.608;19.366;2023-05-07T00:52:56;25.20;;;24.00;;
80115;SDS011;69423;47.608;19.366;2023-05-07T00:53:27;24.83;;;23.43;;
80115;SDS011;69423;47.608;19.366;2023-05-07T00:53:59;25.37;;;24.07;;
80115;SDS011;69423;47.608;19.366;2023-05-07T00:54:32;23.13;;;22.77;;
80115;SDS011;69423;47.608;19.366;2023-05-07T00:55:05;23.40;;;22.50;;
80115;SDS011;69423;47.608;19.366;2023-05-07T00:55:37;24.33;;;23.30;;
80115;SDS011;69423;47.608;19.366;2023-05-07T00:56:08;25.30;;;24.23;;
80115;SDS011;69423;47.608;19.366;2023-05-07T00:56:40;25.10;;;24.00;;
80115;SDS011;69423;47.608;19.366;2023-05-07T00:57:11;25.07;;;23.73;;
80115;SDS011;69423;47.608;19.366;2023-05-07T00:57:42;23.53;;;22.57;;
80115;SDS011;69423;47.608;19.366;2023-05-07T00:58:15;23.73;;;22.77;;
80115;SDS011;69423;47.608;19.366;2023-05-07T00:58:46;24.80;;;23.67;;
80115;SDS011;69423;47.608;19.366;2023-05-07T00:59:17;24.93;;;23.80;;
80115;SDS011;69423;47.608;19.366;2023-05-07T00:59:48;26.10;;;24.83;;
80115;SDS011;69423;47.608;19.366;2023-05-07T01:00:21;25.17;;;23.90;;
80115;SDS011;69423;47.608;19.366;2023-05-07T01:00:52;25.33;;;24.10;;
80115;SDS011;69423;47.608;19.366;2023-05-07T01:01:23;25.77;;;24.27;;
80115;SDS011;69423;47.608;19.366;2023-05-07T01:01:54;26.70;;;25.03;;
80115;SDS011;69423;47.608;19.366;2023-05-07T01:02:25;25.67;;;24.07;;
80115;SDS011;69423;47.608;19.366;2023-05-07T01:02:56;25.70;;;24.27;;
80115;SDS011;69423;47.608;19.366;2023-05-07T01:03:28;25.57;;;24.27;;
80115;SDS011;69423;47.608;19.366;2023-05-07T01:03:59;25.13;;;23.87;;
80115;SDS011;69423;47.608;19.366;2023-05-07T01:04:29;26.30;;;24.90;;
80115;SDS011;69423;47.608;19.366;2023-05-07T01:05:01;26.27;;;24.90;;
80115;SDS011;69423;47.608;19.366;2023-05-07T01:05:34;26.50;;;25.13;;
80115;SDS011;69423;47.608;19.366;2023-05-07T01:06:05;26.00;;;24.77;;
80115;SDS011;69423;47.608;19.366;2023-05-07T01:06:38;24.40;;;24.13;;
80115;SDS011;69423;47.608;19.366;2023-05-07T01:07:09;26.57;;;25.63;;
80115;SDS011;69423;47.608;19.366;2023-05-07T01:07:40;27.13;;;25.63;;
80115;SDS011;69423;47.608;19.366;2023-05-07T01:08:12;27.40;;;26.03;;
80115;SDS011;69423;47.608;19.366;2023-05-07T01:08:46;28.40;;;27.03;;
80115;SDS011;69423;47.608;19.366;2023-05-07T01:09:18;27.80;;;26.50;;
80115;SDS011;69423;47.608;19.366;2023-05-07T01:09:50;27.13;;;25.77;;
80115;SDS011;69423;47.608;19.366;2023-05-07T01:10:22;26.77;;;25.37;;
80115;SDS011;69423;47.608;19.366;2023-05-07T01:10:54;26.53;;;25.00;;
80115;SDS011;69423;47.608;19.366;2023-05-07T01:11:26;27.73;;;26.17;;
80115;SDS011;69423;47.608;19.366;2023-05-07T01:11:57;26.50;;;25.17;;
80115;SDS011;69423;47.608;19.366;2023-05-07T01:12:30;26.60;;;25.33;;
80115;SDS011;69423;47.608;19.366;2023-05-07T01:13:01;27.57;;;26.33;;
80115;SDS011;69423;47.608;19.366;2023-05-07T01:13:32;27.67;;;26.30;;
80115;SDS011;69423;47.608;19.366;2023-05-07T01:14:05;25.77;;;24.47;;
80115;SDS011;69423;47.608;19.366;2023-05-07T01:14:39;26.37;;;25.10;;
80115;SDS011;69423;47.608;19.366;2023-05-07T01:15:10;27.23;;;25.73;;
80115;SDS011;69423;47.608;19.366;2023-05-07T01:15:41;27.57;;;26.10;;
80115;SDS011;69423;47.608;19.366;2023-05-07T01:16:13;27.83;;;26.40;;
80115;SDS011;69423;47.608;19.366;2023-05-07T01:16:44;27.83;;;26.37;;
80115;SDS011;69423;47.608;19.366;2023-05-07T01:17:15;26.47;;;25.23;;
80115;SDS011;69423;47.608;19.366;2023-05-07T01:17:46;26.23;;;24.97;;
80115;SDS011;69423;47.608;19.366;2023-05-07T01:18:17;26.37;;;25.10;;
80115;SDS011;69423;47.608;19.366;2023-05-07T01:18:48;27.93;;;26.47;;
80115;SDS011;69423;47.608;19.366;2023-05-07T01:19:20;26.90;;;25.40;;
80115;SDS011;69423;47.608;19.366;2023-05-07T01:19:51;26.30;;;24.97;;
80115;SDS011;69423;47.608;19.366;2023-05-07T01:20:23;26.40;;;25.17;;
80115;SDS011;69423;47.608;19.366;2023-05-07T01:20:54;25.90;;;24.83;;
80115;SDS011;69423;47.608;19.366;2023-05-07T01:21:28;25.87;;;24.77;;
80115;SDS011;69423;47.608;19.366;2023-05-07T01:22:07;27.77;;;26.30;;
80115;SDS011;69423;47.608;19.366;2023-05-07T01:22:39;26.70;;;25.30;;
80115;SDS011;69423;47.608;19.366;2023-05-07T01:23:11;27.97;;;26.43;;
80115;SDS011;69423;47.608;19.366;2023-05-07T01:23:42;28.23;;;26.73;;
80115;SDS011;69423;47.608;19.366;2023-05-07T01:24:15;26.87;;;25.77;;
80115;SDS011;69423;47.608;19.366;2023-05-07T01:24:46;27.53;;;25.97;;
80115;SDS011;69423;47.608;19.366;2023-05-07T01:25:18;26.93;;;25.50;;
80115;SDS011;69423;47.608;19.366;2023-05-07T01:25:55;26.57;;;25.17;;
80115;SDS011;69423;47.608;19.366;2023-05-07T01:26:26;26.57;;;25.17;;
80115;SDS011;69423;47.608;19.366;2023-05-07T01:26:56;26.23;;;25.33;;
80115;SDS011;69423;47.608;19.366;2023-05-07T01:27:27;26.20;;;25.13;;
80115;SDS011;69423;47.608;19.366;2023-05-07T01:27:58;26.77;;;25.53;;
80115;SDS011;69423;47.608;19.366;2023-05-07T01:28:32;27.40;;;25.97;;
80115;SDS011;69423;47.608;19.366;2023-05-07T01:29:03;27.83;;;26.13;;
80115;SDS011;69423;47.608;19.366;2023-05-07T01:29:34;27.90;;;26.20;;
80115;SDS011;69423;47.608;19.366;2023-05-07T01:30:05;26.97;;;25.57;;
80115;SDS011;69423;47.608;19.366;2023-05-07T01:30:38;27.20;;;25.73;;
80115;SDS011;69423;47.608;19.366;2023-05-07T01:31:16;27.53;;;25.97;;
80115;SDS011;69423;47.608;19.366;2023-05-07T01:31:48;27.60;;;25.90;;
80115;SDS011;69423;47.608;19.366;2023-05-07T01:32:44;27.03;;;25.90;;
80115;SDS011;69423;47.608;19.366;2023-05-07T01:33:23;27.30;;;25.93;;
80115;SDS011;69423;47.608;19.366;2023-05-07T01:33:59;27.37;;;25.87;;
80115;SDS011;69423;47.608;19.366;2023-05-07T01:34:32;27.57;;;26.00;;
80115;SDS011;69423;47.608;19.366;2023-05-07T01:35:05;26.93;;;25.47;;
80115;SDS011;69423;47.608;19.366;2023-05-07T01:35:43;26.33;;;25.07;;
80115;SDS011;69423;47.608;19.366;2023-05-07T01:36:18;25.47;;;24.37;;
80115;SDS011;69423;47.608;19.366;2023-05-07T01:36:52;25.90;;;24.80;;
80115;SDS011;69423;47.608;19.366;2023-05-07T01:37:26;25.83;;;24.60;;
80115;SDS011;69423;47.608;19.366;2023-05-07T01:37:57;27.33;;;25.83;;
80115;SDS011;69423;47.608;19.366;2023-05-07T01:38:28;27.73;;;26.20;;
80115;SDS011;69423;47.608;19.366;2023-05-07T01:38:59;25.70;;;24.77;;
80115;SDS011;69423;47.608;19.366;2023-05-07T01:39:30;25.67;;;24.63;;
80115;SDS011;69423;47.608;19.366;2023-05-07T01:40:02;24.70;;;23.80;;
80115;SDS011;69423;47.608;19.366;2023-05-07T01:40:34;25.63;;;24.57;;
80115;SDS011;69423;47.608;19.366;2023-05-07T01:41:05;26.47;;;25.43;;
80115;SDS011;69423;47.608;19.366;2023-05-07T01:41:37;25.63;;;24.83;;
80115;SDS011;69423;47.608;19.366;2023-05-07T01:42:08;26.53;;;25.33;;
80115;SDS011;69423;47.608;19.366;2023-05-07T01:42:39;27.27;;;25.97;;
80115;SDS011;69423;47.608;19.366;2023-05-07T01:43:13;27.53;;;26.13;;
80115;SDS011;69423;47.608;19.366;2023-05-07T01:43:44;27.00;;;25.47;;
80115;SDS011;69423;47.608;19.366;2023-05-07T01:44:16;27.70;;;26.13;;
80115;SDS011;69423;47.608;19.366;2023-05-07T01:44:48;27.57;;;26.20;;
80115;SDS011;69423;47.608;19.366;2023-05-07T01:45:19;27.50;;;26.27;;
80115;SDS011;69423;47.608;19.366;2023-05-07T01:45:50;25.70;;;24.57;;
80115;SDS011;69423;47.608;19.366;2023-05-07T01:46:23;26.23;;;25.00;;
80115;SDS011;69423;47.608;19.366;2023-05-07T01:46:55;27.70;;;26.47;;
80115;SDS011;69423;47.608;19.366;2023-05-07T01:47:27;28.03;;;26.80;;
80115;SDS011;69423;47.608;19.366;2023-05-07T01:48:00;27.87;;;26.47;;
80115;SDS011;69423;47.608;19.366;2023-05-07T01:48:32;28.87;;;27.27;;
80115;SDS011;69423;47.608;19.366;2023-05-07T01:49:04;27.50;;;26.17;;
80115;SDS011;69423;47.608;19.366;2023-05-07T01:49:35;26.40;;;25.27;;
80115;SDS011;69423;47.608;19.366;2023-05-07T01:50:06;26.90;;;25.47;;
80115;SDS011;69423;47.608;19.366;2023-05-07T01:50:38;27.77;;;26.40;;
80115;SDS011;69423;47.608;19.366;2023-05-07T01:51:10;27.77;;;26.27;;
80115;SDS011;69423;47.608;19.366;2023-05-07T01:51:40;29.13;;;27.60;;
80115;SDS011;69423;47.608;19.366;2023-05-07T01:52:12;27.00;;;26.23;;
80115;SDS011;69423;47.608;19.366;2023-05-07T01:52:43;27.90;;;26.57;;
80115;SDS011;69423;47.608;19.366;2023-05-07T01:53:14;28.07;;;26.40;;
80115;SDS011;69423;47.608;19.366;2023-05-07T01:53:45;28.33;;;26.63;;
80115;SDS011;69423;47.608;19.366;2023-05-07T01:54:24;28.37;;;26.87;;
80115;SDS011;69423;47.608;19.366;2023-05-07T01:54:58;28.17;;;26.87;;
80115;SDS011;69423;47.608;19.366;2023-05-07T01:55:28;27.90;;;26.57;;
80115;SDS011;69423;47.608;19.366;2023-05-07T01:55:59;28.77;;;27.30;;
80115;SDS011;69423;47.608;19.366;2023-05-07T01:56:30;28.27;;;26.73;;
80115;SDS011;69423;47.608;19.366;2023-05-07T01:57:01;28.40;;;27.03;;
80115;SDS011;69423;47.608;19.366;2023-05-07T01:57:32;28.03;;;26.63;;
80115;SDS011;69423;47.608;19.366;2023-05-07T01:58:03;27.70;;;26.40;;
80115;SDS011;69423;47.608;19.366;2023-05-07T01:58:35;25.87;;;25.40;;
80115;SDS011;69423;47.608;19.366;2023-05-07T01:59:06;25.90;;;25.10;;
80115;SDS011;69423;47.608;19.366;2023-05-07T01:59:37;27.53;;;26.17;;
80115;SDS011;69423;47.608;19.366;2023-05-07T02:00:08;28.30;;;26.80;;
80115;SDS011;69423;47.608;19.366;2023-05-07T02:00:39;28.10;;;26.90;;
80115;SDS011;69423;47.608;19.366;2023-05-07T02:01:11;27.10;;;25.97;;
80115;SDS011;69423;47.608;19.366;2023-05-07T02:01:43;26.70;;;25.43;;
80115;SDS011;69423;47.608;19.366;2023-05-07T02:02:13;27.80;;;26.23;;
80115;SDS011;69423;47.608;19.366;2023-05-07T02:02:44;27.27;;;25.90;;
80115;SDS011;69423;47.608;19.366;2023-05-07T02:03:15;26.97;;;25.63;;
80115;SDS011;69423;47.608;19.366;2023-05-07T02:03:47;27.67;;;26.20;;
80115;SDS011;69423;47.608;19.366;2023-05-07T02:04:18;28.03;;;26.43;;
80115;SDS011;69423;47.608;19.366;2023-05-07T02:04:48;27.80;;;26.17;;
80115;SDS011;69423;47.608;19.366;2023-05-07T02:05:19;27.30;;;25.77;;
80115;SDS011;69423;47.608;19.366;2023-05-07T02:05:50;28.37;;;26.80;;
80115;SDS011;69423;47.608;19.366;2023-05-07T02:06:21;28.90;;;27.50;;
80115;SDS011;69423;47.608;19.366;2023-05-07T02:06:52;28.63;;;27.30;;
80115;SDS011;69423;47.608;19.366;2023-05-07T02:07:23;27.73;;;26.37;;
80115;SDS011;69423;47.608;19.366;2023-05-07T02:07:54;27.37;;;25.83;;
80115;SDS011;69423;47.608;19.366;2023-05-07T02:08:25;28.03;;;26.43;;
80115;SDS011;69423;47.608;19.366;2023-05-07T02:08:55;27.57;;;26.03;;
80115;SDS011;69423;47.608;19.366;2023-05-07T02:09:26;27.63;;;26.17;;
80115;SDS011;69423;47.608;19.366;2023-05-07T02:09:57;27.47;;;26.27;;
80115;SDS011;69423;47.608;19.366;2023-05-07T02:10:28;27.20;;;26.00;;
80115;SDS011;69423;47.608;19.366;2023-05-07T02:10:59;28.63;;;27.37;;
80115;SDS011;69423;47.608;19.366;2023-05-07T02:11:30;28.30;;;26.90;;
80115;SDS011;69423;47.608;19.366;2023-05-07T02:12:01;27.03;;;25.80;;
80115;SDS011;69423;47.608;19.366;2023-05-07T02:12:31;27.30;;;26.23;;
80115;SDS011;69423;47.608;19.366;2023-05-07T02:13:02;26.43;;;25.30;;
80115;SDS011;69423;47.608;19.366;2023-05-07T02:13:33;26.87;;;25.37;;
80115;SDS011;69423;47.608;19.366;2023-05-07T02:14:05;27.40;;;25.90;;
80115;SDS011;69423;47.608;19.366;2023-05-07T02:14:36;27.70;;;26.33;;
80115;SDS011;69423;47.608;19.366;2023-05-07T02:15:07;27.47;;;26.57;;
80115;SDS011;69423;47.608;19.366;2023-05-07T02:15:38;27.07;;;26.13;;
80115;SDS011;69423;47.608;19.366;2023-05-07T02:16:09;26.23;;;25.43;;
80115;SDS011;69423;47.608;19.366;2023-05-07T02:16:41;26.43;;;25.73;;
80115;SDS011;69423;47.608;19.366;2023-05-07T02:17:12;27.00;;;25.87;;
80115;SDS011;69423;47.608;19.366;2023-05-07T02:17:58;27.57;;;26.20;;
80115;SDS011;69423;47.608;19.366;2023-05-07T02:18:30;27.27;;;25.97;;
80115;SDS011;69423;47.608;19.366;2023-05-07T02:19:02;27.60;;;26.33;;
80115;SDS011;69423;47.608;19.366;2023-05-07T02:19:33;27.50;;;26.27;;
80115;SDS011;69423;47.608;19.366;2023-05-07T02:20:03;27.13;;;26.10;;
80115;SDS011;69423;47.608;19.366;2023-05-07T02:20:35;26.53;;;25.53;;
80115;SDS011;69423;47.608;19.366;2023-05-07T02:21:06;28.00;;;26.83;;
80115;SDS011;69423;47.608;19.366;2023-05-07T02:21:36;28.63;;;27.43;;
80115;SDS011;69423;47.608;19.366;2023-05-07T02:22:09;27.70;;;26.50;;
80115;SDS011;69423;47.608;19.366;2023-05-07T02:22:40;27.23;;;26.10;;
80115;SDS011;69423;47.608;19.366;2023-05-07T02:23:11;26.37;;;25.37;;
80115;SDS011;69423;47.608;19.366;2023-05-07T02:23:41;26.90;;;25.87;;
80115;SDS011;69423;47.608;19.366;2023-05-07T02:24:12;27.30;;;26.17;;
80115;SDS011;69423;47.608;19.366;2023-05-07T02:24:43;27.63;;;26.20;;
80115;SDS011;69423;47.608;19.366;2023-05-07T02:25:15;27.40;;;26.07;;
80115;SDS011;69423;47.608;19.366;2023-05-07T02:25:45;26.37;;;25.50;;
80115;SDS011;69423;47.608;19.366;2023-05-07T02:26:17;26.83;;;25.87;;
80115;SDS011;69423;47.608;19.366;2023-05-07T02:26:48;25.57;;;25.20;;
80115;SDS011;69423;47.608;19.366;2023-05-07T02:27:19;24.30;;;23.77;;
80115;SDS011;69423;47.608;19.366;2023-05-07T02:27:50;25.23;;;24.10;;
80115;SDS011;69423;47.608;19.366;2023-05-07T02:28:21;25.53;;;24.33;;
80115;SDS011;69423;47.608;19.366;2023-05-07T02:28:52;25.80;;;24.57;;
80115;SDS011;69423;47.608;19.366;2023-05-07T02:29:24;26.07;;;24.73;;
80115;SDS011;69423;47.608;19.366;2023-05-07T02:29:55;25.53;;;23.97;;
80115;SDS011;69423;47.608;19.366;2023-05-07T02:30:26;26.10;;;24.63;;
80115;SDS011;69423;47.608;19.366;2023-05-07T02:30:56;25.43;;;24.23;;
80115;SDS011;69423;47.608;19.366;2023-05-07T02:31:28;25.27;;;24.13;;
80115;SDS011;69423;47.608;19.366;2023-05-07T02:31:59;23.73;;;22.70;;
80115;SDS011;69423;47.608;19.366;2023-05-07T02:32:30;24.40;;;23.23;;
80115;SDS011;69423;47.608;19.366;2023-05-07T02:33:01;23.80;;;22.50;;
80115;SDS011;69423;47.608;19.366;2023-05-07T02:33:32;23.53;;;22.60;;
80115;SDS011;69423;47.608;19.366;2023-05-07T02:34:03;23.33;;;22.53;;
80115;SDS011;69423;47.608;19.366;2023-05-07T02:34:34;23.33;;;22.50;;
80115;SDS011;69423;47.608;19.366;2023-05-07T02:35:05;22.13;;;21.97;;
80115;SDS011;69423;47.608;19.366;2023-05-07T02:35:36;23.23;;;22.80;;
80115;SDS011;69423;47.608;19.366;2023-05-07T02:36:10;22.67;;;22.60;;
80115;SDS011;69423;47.608;19.366;2023-05-07T02:36:42;23.00;;;22.23;;
80115;SDS011;69423;47.608;19.366;2023-05-07T02:37:13;23.43;;;22.57;;
80115;SDS011;69423;47.608;19.366;2023-05-07T02:37:45;23.17;;;22.33;;
80115;SDS011;69423;47.608;19.366;2023-05-07T02:38:16;23.50;;;22.43;;
80115;SDS011;69423;47.608;19.366;2023-05-07T02:38:46;24.47;;;23.27;;
80115;SDS011;69423;47.608;19.366;2023-05-07T02:39:17;24.33;;;23.10;;
80115;SDS011;69423;47.608;19.366;2023-05-07T02:39:48;24.70;;;23.40;;
80115;SDS011;69423;47.608;19.366;2023-05-07T02:40:19;24.53;;;23.23;;
80115;SDS011;69423;47.608;19.366;2023-05-07T02:40:50;23.10;;;22.47;;
80115;SDS011;69423;47.608;19.366;2023-05-07T02:41:21;23.70;;;23.07;;
80115;SDS011;69423;47.608;19.366;2023-05-07T02:41:52;24.17;;;23.13;;
80115;SDS011;69423;47.608;19.366;2023-05-07T02:42:22;24.23;;;22.97;;
80115;SDS011;69423;47.608;19.366;2023-05-07T02:42:53;25.07;;;23.67;;
80115;SDS011;69423;47.608;19.366;2023-05-07T02:43:24;24.17;;;22.93;;
80115;SDS011;69423;47.608;19.366;2023-05-07T02:43:55;24.63;;;23.47;;
80115;SDS011;69423;47.608;19.366;2023-05-07T02:44:26;24.63;;;23.47;;
80115;SDS011;69423;47.608;19.366;2023-05-07T02:44:57;23.03;;;22.10;;
80115;SDS011;69423;47.608;19.366;2023-05-07T02:45:28;22.43;;;22.17;;
80115;SDS011;69423;47.608;19.366;2023-05-07T02:46:33;23.97;;;22.93;;
80115;SDS011;69423;47.608;19.366;2023-05-07T02:47:04;25.87;;;24.50;;
80115;SDS011;69423;47.608;19.366;2023-05-07T02:47:34;26.23;;;24.80;;
80115;SDS011;69423;47.608;19.366;2023-05-07T02:48:05;26.37;;;25.07;;
80115;SDS011;69423;47.608;19.366;2023-05-07T02:48:36;25.47;;;24.13;;
80115;SDS011;69423;47.608;19.366;2023-05-07T02:49:07;23.93;;;22.73;;
80115;SDS011;69423;47.608;19.366;2023-05-07T02:49:38;24.37;;;23.23;;
80115;SDS011;69423;47.608;19.366;2023-05-07T02:50:09;24.43;;;23.57;;
80115;SDS011;69423;47.608;19.366;2023-05-07T02:50:40;24.20;;;23.43;;
80115;SDS011;69423;47.608;19.366;2023-05-07T02:51:11;23.43;;;23.03;;
80115;SDS011;69423;47.608;19.366;2023-05-07T02:51:42;23.80;;;23.37;;
80115;SDS011;69423;47.608;19.366;2023-05-07T02:52:13;25.60;;;24.90;;
80115;SDS011;69423;47.608;19.366;2023-05-07T02:52:44;25.70;;;24.83;;
80115;SDS011;69423;47.608;19.366;2023-05-07T02:53:14;26.07;;;24.93;;
80115;SDS011;69423;47.608;19.366;2023-05-07T02:53:45;27.27;;;25.90;;
80115;SDS011;69423;47.608;19.366;2023-05-07T02:54:16;26.53;;;25.13;;
80115;SDS011;69423;47.608;19.366;2023-05-07T02:54:48;26.50;;;25.67;;
80115;SDS011;69423;47.608;19.366;2023-05-07T02:55:19;25.47;;;24.90;;
80115;SDS011;69423;47.608;19.366;2023-05-07T02:55:50;26.63;;;25.63;;
80115;SDS011;69423;47.608;19.366;2023-05-07T02:56:21;26.93;;;25.73;;
80115;SDS011;69423;47.608;19.366;2023-05-07T02:56:52;27.33;;;26.00;;
80115;SDS011;69423;47.608;19.366;2023-05-07T02:57:22;27.60;;;26.30;;
80115;SDS011;69423;47.608;19.366;2023-05-07T02:57:53;28.03;;;26.73;;
80115;SDS011;69423;47.608;19.366;2023-05-07T02:58:24;27.93;;;26.60;;
80115;SDS011;69423;47.608;19.366;2023-05-07T02:58:56;27.00;;;25.77;;
80115;SDS011;69423;47.608;19.366;2023-05-07T02:59:27;27.50;;;26.10;;
80115;SDS011;69423;47.608;19.366;2023-05-07T02:59:58;26.67;;;25.30;;
80115;SDS011;69423;47.608;19.366;2023-05-07T03:00:29;27.07;;;25.80;;
80115;SDS011;69423;47.608;19.366;2023-05-07T03:01:00;26.90;;;25.73;;
80115;SDS011;69423;47.608;19.366;2023-05-07T03:01:31;26.53;;;25.33;;
80115;SDS011;69423;47.608;19.366;2023-05-07T03:02:02;27.87;;;26.37;;
80115;SDS011;69423;47.608;19.366;2023-05-07T03:02:32;27.93;;;26.37;;